createdAt,value
2022-11-08T00:02:13.189Z,86.42
2022-11-08T00:04:39.978Z,85.84
2022-11-08T00:07:25.071Z,88.58
2022-11-08T00:10:10.286Z,85.43
2022-11-08T00:12:55.472Z,86.45
2022-11-08T00:15:21.900Z,85.58
2022-11-08T00:17:48.348Z,86.12
2022-11-08T00:20:14.805Z,86.42
2022-11-08T00:22:41.296Z,86.98
2022-11-08T00:25:08.033Z,87.48
2022-11-08T00:27:34.517Z,86.02
2022-11-08T00:30:01.003Z,86.47
2022-11-08T00:32:27.509Z,86.82
2022-11-08T00:34:54.243Z,87.14
2022-11-08T00:37:21.846Z,84.28
2022-11-08T00:39:48.764Z,87.64
2022-11-08T00:42:15.504Z,85.44
2022-11-08T00:44:42.019Z,85.36
2022-11-08T00:47:08.457Z,86.46
2022-11-08T00:49:34.991Z,84.73
2022-11-08T00:52:01.484Z,84.58
2022-11-08T00:54:27.989Z,84.34
2022-11-08T00:56:54.425Z,84.34
2022-11-08T00:59:20.990Z,85.63
2022-11-08T01:01:47.799Z,84.98
2022-11-08T01:04:18.140Z,85.69
2022-11-08T01:06:45.149Z,85.98
2022-11-08T01:09:11.737Z,84.30
2022-11-08T01:11:39.567Z,84.50
2022-11-08T01:14:06.299Z,84.88
2022-11-08T01:16:33.451Z,83.66
2022-11-08T01:19:00.605Z,84.19
2022-11-08T01:21:27.512Z,84.05
2022-11-08T01:23:57.224Z,84.01
2022-11-08T01:26:27.354Z,84.24
2022-11-08T01:28:54.684Z,83.68
2022-11-08T01:31:23.567Z,84.04
2022-11-08T01:33:51.712Z,84.20
2022-11-08T01:36:20.709Z,84.19
2022-11-08T01:38:47.484Z,84.46
2022-11-08T01:41:15.275Z,84.72
2022-11-08T01:43:53.400Z,83.82
2022-11-08T01:46:19.860Z,83.37
2022-11-08T01:48:50.966Z,84.41
2022-11-08T01:51:19.657Z,83.68
2022-11-08T01:53:46.476Z,84.06
2022-11-08T01:56:14.259Z,83.47
2022-11-08T01:58:42.654Z,84.09
2022-11-08T02:01:09.927Z,82.78
2022-11-08T02:03:36.636Z,83.93
2022-11-08T02:06:03.807Z,82.83
2022-11-08T02:08:37.926Z,83.30
2022-11-08T02:11:05.531Z,83.65
2022-11-08T02:13:33.615Z,83.01
2022-11-08T02:16:00.459Z,83.46
2022-11-08T02:18:29.130Z,82.76
2022-11-08T02:21:17.908Z,82.17
2022-11-08T02:23:52.424Z,83.07
2022-11-08T02:26:25.903Z,82.42
2022-11-08T02:28:52.364Z,82.25
2022-11-08T02:31:43.834Z,81.79
2022-11-08T02:34:10.332Z,81.17
2022-11-08T02:36:36.830Z,82.47
2022-11-08T02:39:03.424Z,84.64
2022-11-08T02:41:29.849Z,83.90
2022-11-08T02:43:57.504Z,83.85
2022-11-08T02:46:23.980Z,83.46
2022-11-08T02:48:50.443Z,82.07
2022-11-08T02:51:16.876Z,82.28
2022-11-08T02:53:43.419Z,83.34
2022-11-08T02:56:09.889Z,81.98
2022-11-08T02:58:36.380Z,82.18
2022-11-08T03:01:02.966Z,81.75
2022-11-08T03:03:29.447Z,81.96
2022-11-08T03:05:59.046Z,82.25
2022-11-08T03:08:25.526Z,82.20
2022-11-08T03:10:51.965Z,83.12
2022-11-08T03:13:18.437Z,81.70
2022-11-08T03:15:44.926Z,81.28
2022-11-08T03:18:11.356Z,83.22
2022-11-08T03:20:37.838Z,82.14
2022-11-08T03:23:06.502Z,82.04
2022-11-08T03:25:33.300Z,82.38
2022-11-08T03:28:07.891Z,81.40
2022-11-08T03:30:34.828Z,80.36
2022-11-08T03:33:01.965Z,81.93
2022-11-08T03:35:28.461Z,80.80
2022-11-08T03:37:56.430Z,80.20
2022-11-08T03:40:23.491Z,80.83
2022-11-08T03:42:50.100Z,79.73
2022-11-08T03:45:16.824Z,79.07
2022-11-08T03:47:44.864Z,81.23
2022-11-08T03:50:12.192Z,79.58
2022-11-08T03:52:41.922Z,80.32
2022-11-08T03:55:09.577Z,80.36
2022-11-08T03:57:39.803Z,80.65
2022-11-08T04:00:08.649Z,79.97
2022-11-08T04:02:35.428Z,81.35
2022-11-08T04:05:01.925Z,80.93
2022-11-08T04:07:28.740Z,80.77
2022-11-08T04:09:55.869Z,79.69
2022-11-08T04:12:54.604Z,80.07
2022-11-08T04:15:22.730Z,80.27
2022-11-08T04:18:09.337Z,79.84
2022-11-08T04:20:59.057Z,79.82
2022-11-08T04:23:26.342Z,79.44
2022-11-08T04:26:04.780Z,78.50
2022-11-08T04:28:33.118Z,79.03
2022-11-08T04:31:02.936Z,79.37
2022-11-08T04:33:29.731Z,79.94
2022-11-08T04:35:56.413Z,78.93
2022-11-08T04:38:22.927Z,79.15
2022-11-08T04:40:49.443Z,79.65
2022-11-08T04:43:16.080Z,80.20
2022-11-08T04:45:42.589Z,79.20
2022-11-08T04:48:09.158Z,78.80
2022-11-08T04:50:36.549Z,81.37
2022-11-08T04:53:03.148Z,80.03
2022-11-08T04:55:29.604Z,80.66
2022-11-08T04:57:59.337Z,81.10
2022-11-08T05:00:26.546Z,79.74
2022-11-08T05:02:53.085Z,79.95
2022-11-08T05:05:19.676Z,80.00
2022-11-08T05:07:46.174Z,80.06
2022-11-08T05:10:12.676Z,79.34
2022-11-08T05:12:39.146Z,79.66
2022-11-08T05:15:06.294Z,80.10
2022-11-08T05:17:32.723Z,80.38
2022-11-08T05:20:18.098Z,79.87
2022-11-08T05:23:03.106Z,79.82
2022-11-08T05:25:29.562Z,80.30
2022-11-08T05:27:55.987Z,80.05
2022-11-08T05:30:22.454Z,80.32
2022-11-08T05:32:51.675Z,80.14
2022-11-08T05:35:21.617Z,80.45
2022-11-08T05:37:48.451Z,80.47
2022-11-08T05:40:14.910Z,80.53
2022-11-08T05:42:41.332Z,82.92
2022-11-08T05:45:09.473Z,81.86
2022-11-08T05:47:36.546Z,81.71
2022-11-08T05:50:03.138Z,80.19
2022-11-08T05:52:29.582Z,80.81
2022-11-08T05:54:56.056Z,80.89
2022-11-08T05:57:22.537Z,80.92
2022-11-08T05:59:49.056Z,81.76
2022-11-08T06:02:17.089Z,80.49
2022-11-08T06:04:44.018Z,80.83
2022-11-08T06:07:10.459Z,80.41
2022-11-08T06:09:36.930Z,79.24
2022-11-08T06:12:03.582Z,78.82
2022-11-08T06:14:30.112Z,78.84
2022-11-08T06:16:56.545Z,80.62
2022-11-08T06:19:23.192Z,78.76
2022-11-08T06:21:49.642Z,79.45
2022-11-08T06:24:17.459Z,79.47
2022-11-08T06:26:44.462Z,79.55
2022-11-08T06:29:10.911Z,78.39
2022-11-08T06:31:41.873Z,78.84
2022-11-08T06:34:09.659Z,77.49
2022-11-08T06:36:36.318Z,78.67
2022-11-08T06:39:02.919Z,78.20
2022-11-08T06:41:30.035Z,79.99
2022-11-08T06:43:56.616Z,80.52
2022-11-08T06:46:23.376Z,79.59
2022-11-08T06:48:50.159Z,80.47
2022-11-08T06:51:17.015Z,80.63
2022-11-08T06:53:43.496Z,79.32
2022-11-08T06:56:10.315Z,79.86
2022-11-08T06:58:37.039Z,78.61
2022-11-08T07:01:04.655Z,78.73
2022-11-08T07:03:31.410Z,78.21
2022-11-08T07:05:57.938Z,78.57
2022-11-08T07:08:24.580Z,80.00
2022-11-08T07:10:51.531Z,79.27
2022-11-08T07:13:18.283Z,81.32
2022-11-08T07:15:45.372Z,80.02
2022-11-08T07:18:13.265Z,79.70
2022-11-08T07:20:40.692Z,79.73
2022-11-08T07:23:07.681Z,80.21
2022-11-08T07:25:34.742Z,79.37
2022-11-08T07:28:03.414Z,80.04
2022-11-08T07:30:30.153Z,79.66
2022-11-08T07:32:57.023Z,80.21
2022-11-08T07:35:24.855Z,79.71
2022-11-08T07:37:51.414Z,79.57
2022-11-08T07:40:17.973Z,79.57
2022-11-08T07:43:10.161Z,79.03
2022-11-08T07:45:30.883Z,78.30
2022-11-08T07:48:05.419Z,79.35
2022-11-08T07:50:34.644Z,77.68
2022-11-08T07:53:01.231Z,77.76
2022-11-08T07:55:27.735Z,79.63
2022-11-08T07:58:01.364Z,79.78
2022-11-08T08:00:31.685Z,79.17
2022-11-08T08:03:01.874Z,79.77
2022-11-08T08:05:30.177Z,78.94
2022-11-08T08:08:00.416Z,77.39
2022-11-08T08:10:28.150Z,78.46
2022-11-08T08:12:55.735Z,79.20
2022-11-08T08:15:22.346Z,78.79
2022-11-08T08:17:48.843Z,78.08
2022-11-08T08:20:15.402Z,79.11
2022-11-08T08:22:50.997Z,79.29
2022-11-08T08:25:18.802Z,78.86
2022-11-08T08:27:54.228Z,78.75
2022-11-08T08:30:21.723Z,78.02
2022-11-08T08:33:08.411Z,78.05
2022-11-08T08:35:38.699Z,77.78
2022-11-08T08:38:07.071Z,75.80
2022-11-08T08:40:34.664Z,75.68
2022-11-08T08:43:03.727Z,76.18
2022-11-08T08:45:31.838Z,76.17
2022-11-08T08:48:00.533Z,75.37
2022-11-08T08:50:30.667Z,75.05
2022-11-08T08:53:02.644Z,76.02
2022-11-08T08:55:30.060Z,75.32
2022-11-08T08:57:58.712Z,74.13
2022-11-08T09:03:13.394Z,74.79
2022-11-08T09:05:44.879Z,73.19
2022-11-08T09:08:14.780Z,72.70
2022-11-08T09:10:42.225Z,73.43
2022-11-08T09:13:09.210Z,73.46
2022-11-08T09:15:37.269Z,73.15
2022-11-08T09:18:05.273Z,73.71
2022-11-08T09:20:32.283Z,73.12
2022-11-08T09:23:03.151Z,71.67
2022-11-08T09:25:29.733Z,71.73
2022-11-08T09:27:56.190Z,71.14
2022-11-08T09:30:22.785Z,70.35
2022-11-08T09:33:04.727Z,69.46
2022-11-08T09:35:31.235Z,69.59
2022-11-08T09:37:58.442Z,69.74
2022-11-08T09:40:33.094Z,70.64
2022-11-08T09:43:18.594Z,69.89
2022-11-08T09:45:46.584Z,69.14
2022-11-08T09:48:51.381Z,68.91
2022-11-08T09:51:20.828Z,68.89
2022-11-08T09:53:57.279Z,68.51
2022-11-08T09:56:29.034Z,67.81
2022-11-08T09:59:09.847Z,67.31
2022-11-08T10:01:36.798Z,67.15
2022-11-08T10:04:07.880Z,65.87
2022-11-08T10:07:05.509Z,66.86
2022-11-08T10:10:11.062Z,66.66
2022-11-08T10:12:50.917Z,65.95
2022-11-08T10:15:38.511Z,66.24
2022-11-08T10:18:27.311Z,65.84
2022-11-08T10:21:08.985Z,65.54
2022-11-08T10:23:43.298Z,64.78
2022-11-08T10:26:26.655Z,64.52
2022-11-08T10:29:00.866Z,64.03
2022-11-08T10:31:28.923Z,64.32
2022-11-08T10:33:56.979Z,64.67
2022-11-08T10:36:30.127Z,64.26
2022-11-08T10:39:08.972Z,64.49
2022-11-08T10:41:44.713Z,64.50
2022-11-08T10:44:15.394Z,62.94
2022-11-08T10:46:49.234Z,62.78
2022-11-08T10:49:21.579Z,62.54
2022-11-08T10:51:51.933Z,62.21
2022-11-08T10:54:50.413Z,61.95
2022-11-08T10:57:23.908Z,62.07
2022-11-08T10:59:50.791Z,61.39
2022-11-08T11:02:32.834Z,61.25
2022-11-08T11:05:35.609Z,61.44
2022-11-08T11:08:13.589Z,61.40
2022-11-08T11:10:44.231Z,61.51
2022-11-08T11:13:24.001Z,61.54
2022-11-08T11:16:00.720Z,60.82
2022-11-08T11:18:37.507Z,61.52
2022-11-08T11:21:09.967Z,60.79
2022-11-08T11:23:46.472Z,60.86
2022-11-08T11:26:32.763Z,60.89
2022-11-08T11:28:59.188Z,61.97
2022-11-08T11:31:25.844Z,61.42
2022-11-08T11:33:52.311Z,60.80
2022-11-08T11:36:24.083Z,61.31
2022-11-08T11:38:59.521Z,60.56
2022-11-08T11:41:34.011Z,59.69
2022-11-08T11:44:21.430Z,59.95
2022-11-08T11:46:56.144Z,60.10
2022-11-08T11:49:24.229Z,60.91
2022-11-08T11:51:56.735Z,60.79
2022-11-08T11:54:33.692Z,60.45
2022-11-08T11:57:16.844Z,60.35
2022-11-08T11:59:50.942Z,60.67
2022-11-08T12:02:17.687Z,60.42
2022-11-08T12:05:04.613Z,61.53
2022-11-08T12:07:34.582Z,60.93
2022-11-08T12:10:25.642Z,59.92
2022-11-08T12:13:03.565Z,60.20
2022-11-08T12:15:31.759Z,59.59
2022-11-08T12:18:10.475Z,59.51
2022-11-08T12:20:42.692Z,60.19
2022-11-08T12:23:34.274Z,60.59
2022-11-08T12:26:07.271Z,61.30
2022-11-08T12:28:47.205Z,61.60
2022-11-08T12:31:41.095Z,61.45
2022-11-08T12:34:23.944Z,60.66
2022-11-08T12:36:57.097Z,61.05
2022-11-08T12:39:33.450Z,62.09
2022-11-08T12:42:34.758Z,61.96
2022-11-08T12:45:23.046Z,62.79
2022-11-08T12:47:57.791Z,61.78
2022-11-08T12:51:01.355Z,61.86
2022-11-08T12:53:40.526Z,62.63
2022-11-08T12:56:13.937Z,61.99
2022-11-08T12:58:49.213Z,62.30
2022-11-08T13:01:18.367Z,62.00
2022-11-08T13:03:50.972Z,62.91
2022-11-08T13:06:18.531Z,62.49
2022-11-08T13:08:53.407Z,62.58
2022-11-08T13:11:46.689Z,62.30
2022-11-08T13:14:15.486Z,62.17
2022-11-08T13:16:44.571Z,62.42
2022-11-08T13:19:30.455Z,62.67
2022-11-08T13:21:56.940Z,62.36
2022-11-08T13:24:44.483Z,62.97
2022-11-08T13:27:38.680Z,62.59
2022-11-08T13:30:11.262Z,63.09
2022-11-08T13:32:43.712Z,62.87
2022-11-08T13:35:51.636Z,62.94
2022-11-08T13:38:41.208Z,62.92
2022-11-08T13:41:22.268Z,63.03
2022-11-08T13:43:50.163Z,62.19
2022-11-08T13:46:29.739Z,62.63
2022-11-08T13:49:03.544Z,61.98
2022-11-08T13:51:34.599Z,62.23
2022-11-08T13:54:05.709Z,62.81
2022-11-08T13:56:41.181Z,62.61
2022-11-08T14:01:45.227Z,62.71
2022-11-08T14:04:41.351Z,63.49
2022-11-08T14:07:12.990Z,62.20
2022-11-08T14:10:16.177Z,62.12
2022-11-08T14:12:46.527Z,62.51
2022-11-08T14:15:24.484Z,62.55
2022-11-08T14:18:11.385Z,62.33
2022-11-08T14:20:41.043Z,62.10
2022-11-08T14:23:19.926Z,61.99
2022-11-08T14:25:48.716Z,61.69
2022-11-08T14:28:29.428Z,61.45
2022-11-08T14:30:56.946Z,62.23
2022-11-08T14:33:28.598Z,61.48
2022-11-08T14:36:00.221Z,61.45
2022-11-08T14:38:28.564Z,61.26
2022-11-08T14:40:58.163Z,61.16
2022-11-08T14:43:25.421Z,60.85
2022-11-08T14:45:52.039Z,60.78
2022-11-08T14:48:24.310Z,60.36
2022-11-08T14:50:58.226Z,60.15
2022-11-08T14:53:30.412Z,60.26
2022-11-08T14:56:10.942Z,59.93
2022-11-08T14:58:37.403Z,59.68
2022-11-08T15:01:04.893Z,60.11
2022-11-08T15:03:31.828Z,59.61
2022-11-08T15:05:59.688Z,58.92
2022-11-08T15:08:33.127Z,58.77
2022-11-08T15:11:10.998Z,58.73
2022-11-08T15:13:44.147Z,58.33
2022-11-08T15:16:11.335Z,59.33
2022-11-08T15:18:39.894Z,58.26
2022-11-08T15:21:27.474Z,57.96
2022-11-08T15:24:10.517Z,58.00
2022-11-08T15:26:37.353Z,58.33
2022-11-08T15:29:12.997Z,58.48
2022-11-08T15:32:01.223Z,57.91
2022-11-08T15:34:36.668Z,58.81
2022-11-08T15:37:03.590Z,58.06
2022-11-08T15:39:39.256Z,58.29
2022-11-08T15:42:13.294Z,58.82
2022-11-08T15:45:06.526Z,57.89
2022-11-08T15:47:35.894Z,58.22
2022-11-08T15:50:16.223Z,58.71
2022-11-08T15:52:43.624Z,58.30
2022-11-08T15:55:15.559Z,58.03
2022-11-08T15:57:43.706Z,58.49
2022-11-08T16:00:14.499Z,58.79
2022-11-08T16:02:40.942Z,58.47
2022-11-08T16:05:27.746Z,58.58
2022-11-08T16:07:54.931Z,58.46
2022-11-08T16:10:29.869Z,58.45
2022-11-08T16:12:58.829Z,59.29
2022-11-08T16:15:25.566Z,59.34
2022-11-08T16:17:52.200Z,59.12
2022-11-08T16:20:27.619Z,59.31
2022-11-08T16:22:55.656Z,58.52
2022-11-08T16:25:22.923Z,58.83
2022-11-08T16:27:53.400Z,58.80
2022-11-08T16:30:20.364Z,58.62
2022-11-08T16:32:47.525Z,58.09
2022-11-08T16:35:14.243Z,58.06
2022-11-08T16:37:41.459Z,58.27
2022-11-08T16:40:21.603Z,58.01
2022-11-08T16:42:50.706Z,58.30
2022-11-08T16:45:19.636Z,57.77
2022-11-08T16:47:51.221Z,57.83
2022-11-08T16:50:25.656Z,57.37
2022-11-08T16:52:52.560Z,56.54
2022-11-08T16:55:20.332Z,57.19
2022-11-08T16:57:48.021Z,56.64
2022-11-08T17:00:19.242Z,57.11
2022-11-08T17:02:53.011Z,57.25
2022-11-08T17:05:22.637Z,56.66
2022-11-08T17:07:52.971Z,57.09
2022-11-08T17:10:22.013Z,57.13
2022-11-08T17:12:49.163Z,57.10
2022-11-08T17:15:18.473Z,56.90
2022-11-08T17:17:44.956Z,57.36
2022-11-08T17:20:13.480Z,57.45
2022-11-08T17:22:41.218Z,56.90
2022-11-08T17:25:08.658Z,56.62
2022-11-08T17:27:35.754Z,56.50
2022-11-08T17:30:02.709Z,56.03
2022-11-08T17:32:29.212Z,56.83
2022-11-08T17:34:55.665Z,56.53
2022-11-08T17:37:23.038Z,56.87
2022-11-08T17:39:49.654Z,55.87
2022-11-08T17:42:16.069Z,56.57
2022-11-08T17:44:42.538Z,56.18
2022-11-08T17:47:08.964Z,56.54
2022-11-08T17:49:39.873Z,56.15
2022-11-08T17:52:09.447Z,56.53
2022-11-08T17:54:35.922Z,56.51
2022-11-08T17:57:02.360Z,56.61
2022-11-08T17:59:28.839Z,56.17
2022-11-08T18:01:55.784Z,56.71
2022-11-08T18:04:22.363Z,56.20
2022-11-08T18:06:48.915Z,56.40
2022-11-08T18:09:15.508Z,56.03
2022-11-08T18:11:47.840Z,55.89
2022-11-08T18:14:28.201Z,56.57
2022-11-08T18:16:56.090Z,56.03
2022-11-08T18:19:22.911Z,57.00
2022-11-08T18:21:49.329Z,56.43
2022-11-08T18:24:16.408Z,56.69
2022-11-08T18:26:43.015Z,56.33
2022-11-08T18:29:09.544Z,56.98
2022-11-08T18:31:36.826Z,56.88
2022-11-08T18:34:03.345Z,57.76
2022-11-08T18:36:31.016Z,57.28
2022-11-08T18:38:59.865Z,57.40
2022-11-08T18:41:31.569Z,57.26
2022-11-08T18:43:59.325Z,57.43
2022-11-08T18:46:27.671Z,57.63
2022-11-08T18:48:54.651Z,57.42
2022-11-08T18:51:22.569Z,57.23
2022-11-08T18:53:49.637Z,57.76
2022-11-08T18:56:16.497Z,56.74
2022-11-08T18:58:44.030Z,57.41
2022-11-08T19:01:10.629Z,57.90
2022-11-08T19:03:37.431Z,57.19
2022-11-08T19:06:04.470Z,57.13
2022-11-08T19:08:31.634Z,58.28
2022-11-08T19:11:06.784Z,57.07
2022-11-08T19:13:34.477Z,57.73
2022-11-08T19:16:05.592Z,57.62
2022-11-08T19:18:33.384Z,58.05
2022-11-08T19:21:04.999Z,58.13
2022-11-08T19:23:32.111Z,57.22
2022-11-08T19:26:01.162Z,57.16
2022-11-08T19:28:32.692Z,57.79
2022-11-08T19:31:00.143Z,57.64
2022-11-08T19:33:28.048Z,57.66
2022-11-08T19:35:55.287Z,57.29
2022-11-08T19:38:22.523Z,56.56
2022-11-08T19:40:49.096Z,57.66
2022-11-08T19:43:16.727Z,57.12
2022-11-08T19:45:49.185Z,57.63
2022-11-08T19:48:17.789Z,57.19
2022-11-08T19:50:44.600Z,58.35
2022-11-08T19:53:11.044Z,57.94
2022-11-08T19:55:37.523Z,58.00
2022-11-08T19:58:04.089Z,57.71
2022-11-08T20:00:30.620Z,58.05
2022-11-08T20:02:57.064Z,58.12
2022-11-08T20:05:23.596Z,58.13
2022-11-08T20:07:50.727Z,58.67
2022-11-08T20:10:17.637Z,59.08
2022-11-08T20:12:44.169Z,58.17
2022-11-08T20:15:10.901Z,58.56
2022-11-08T20:17:37.351Z,58.56
2022-11-08T20:20:04.353Z,59.15
2022-11-08T20:22:30.799Z,58.59
2022-11-08T20:24:57.222Z,59.16
2022-11-08T20:27:23.707Z,59.05
2022-11-08T20:29:50.210Z,57.74
2022-11-08T20:32:16.650Z,59.09
2022-11-08T20:34:43.088Z,59.09
2022-11-08T20:37:14.417Z,58.84
2022-11-08T20:39:41.286Z,58.81
2022-11-08T20:42:07.758Z,58.47
2022-11-08T20:44:34.199Z,58.81
2022-11-08T20:47:06.265Z,58.33
2022-11-08T20:49:33.273Z,58.94
2022-11-08T20:51:59.815Z,59.51
2022-11-08T20:54:26.521Z,59.24
2022-11-08T20:56:52.985Z,58.70
2022-11-08T20:59:19.395Z,59.09
2022-11-08T21:01:46.038Z,58.39
2022-11-08T21:04:12.700Z,59.14
2022-11-08T21:06:39.361Z,60.10
2022-11-08T21:11:53.428Z,59.55
2022-11-08T21:14:19.928Z,59.74
2022-11-08T21:17:19.761Z,59.80
2022-11-08T21:19:32.877Z,59.59
2022-11-08T21:22:15.153Z,60.26
2022-11-08T21:24:46.152Z,59.62
2022-11-08T21:27:12.972Z,60.03
2022-11-08T21:29:39.926Z,60.40
2022-11-08T21:32:06.852Z,59.64
2022-11-08T21:34:33.403Z,59.85
2022-11-08T21:37:00.084Z,59.12
2022-11-08T21:39:26.641Z,60.43
2022-11-08T21:41:53.280Z,60.32
2022-11-08T21:44:19.837Z,60.49
2022-11-08T21:46:46.563Z,60.07
2022-11-08T21:49:13.377Z,59.48
2022-11-08T21:51:39.942Z,59.67
2022-11-08T21:54:06.756Z,60.49
2022-11-08T21:56:34.277Z,60.21
2022-11-08T21:59:01.519Z,59.96
2022-11-08T22:01:30.574Z,61.12
2022-11-08T22:03:58.404Z,59.66
2022-11-08T22:06:24.926Z,59.60
2022-11-08T22:08:51.545Z,60.09
2022-11-08T22:11:18.581Z,59.72
2022-11-08T22:13:45.044Z,61.20
2022-11-08T22:16:12.616Z,61.03
2022-11-08T22:21:37.878Z,59.73
2022-11-08T22:24:13.388Z,61.33
2022-11-08T22:26:40.902Z,60.65
2022-11-08T22:29:07.516Z,60.27
2022-11-08T22:31:34.907Z,60.50
2022-11-08T22:34:01.993Z,60.78
2022-11-08T22:36:28.672Z,60.97
2022-11-08T22:38:55.351Z,62.32
2022-11-08T22:41:22.734Z,61.72
2022-11-08T22:43:50.470Z,62.33
2022-11-08T22:46:17.186Z,62.06
2022-11-08T22:48:43.683Z,61.79
2022-11-08T22:51:11.016Z,62.07
2022-11-08T22:53:37.752Z,62.79
2022-11-08T22:56:10.722Z,62.32
2022-11-08T22:58:37.954Z,62.36
2022-11-08T23:01:05.884Z,62.15
2022-11-08T23:03:32.410Z,62.94
2022-11-08T23:06:01.087Z,62.96
2022-11-08T23:08:27.742Z,63.74
2022-11-08T23:11:12.940Z,61.46
2022-11-08T23:13:58.203Z,62.23
2022-11-08T23:16:37.652Z,62.20
2022-11-08T23:19:40.084Z,62.27
2022-11-08T23:22:29.432Z,62.59
2022-11-08T23:24:56.329Z,63.49
2022-11-08T23:27:41.647Z,62.87
2022-11-08T23:30:29.804Z,63.36
2022-11-08T23:32:56.552Z,62.51
2022-11-08T23:35:23.628Z,62.49
2022-11-08T23:37:50.273Z,62.85
2022-11-08T23:40:36.843Z,62.47
2022-11-08T23:43:28.991Z,62.74
2022-11-08T23:45:56.334Z,63.50
2022-11-08T23:48:22.911Z,63.27
2022-11-08T23:50:51.236Z,63.45
2022-11-08T23:53:19.349Z,63.39
2022-11-08T23:55:46.236Z,63.98
2022-11-08T23:58:13.978Z,63.78
